Time;durP1;ratioP1;P1;durP2;ratioP2;P2;SDS_P1;SDS_P2;PMS_P1;PMS_P2;Temp;Humidity;BMP_temperature;BMP_pressure;BME280_temperature;BME280_humidity;BME280_pressure;Samples;Min_cycle;Max_cycle;Signal;HPM_P1;HPM_P2
2023/12/03 00:01:33;;;;;;;23.20;10.00;;;;;;;;;;6395186;22;20066;-78
2023/12/03 00:03:58;;;;;;;27.08;9.95;;;;;;;;;;6424478;22;20056;-78
2023/12/03 00:06:24;;;;;;;23.10;10.20;;;;;;;;;;6423802;22;20004;-78
2023/12/03 00:08:49;;;;;;;32.30;10.50;;;;;;;;;;6394865;22;19997;-78
2023/12/03 00:11:15;;;;;;;29.38;11.25;;;;;;;;;;6424212;22;20052;-78
2023/12/03 00:13:40;;;;;;;21.58;9.75;;;;;;;;;;6424916;22;20005;-78
2023/12/03 00:16:06;;;;;;;23.42;6.80;;;;;;;;;;6424403;22;20005;-78
2023/12/03 00:18:31;;;;;;;19.88;9.20;;;;;;;;;;6396478;22;20012;-78
2023/12/03 00:20:57;;;;;;;26.25;8.73;;;;;;;;;;6425376;22;20348;-78
2023/12/03 00:23:22;;;;;;;25.38;10.32;;;;;;;;;;6431061;22;20014;-77
2023/12/03 00:25:47;;;;;;;22.02;9.40;;;;;;;;;;6442383;22;20017;-78
2023/12/03 00:28:13;;;;;;;25.48;10.38;;;;;;;;;;6412801;22;20005;-78
2023/12/03 00:30:38;;;;;;;27.00;10.25;;;;;;;;;;6398734;22;20104;-78
2023/12/03 00:33:03;;;;;;;25.48;9.50;;;;;;;;;;6424736;22;20572;-78
2023/12/03 00:35:29;;;;;;;16.10;7.60;;;;;;;;;;6424675;22;20061;-78
2023/12/03 00:37:54;;;;;;;20.30;7.95;;;;;;;;;;6395530;22;20038;-77
2023/12/03 00:40:19;;;;;;;25.08;9.40;;;;;;;;;;6395313;22;20070;-78
2023/12/03 00:42:45;;;;;;;21.05;9.05;;;;;;;;;;6394736;22;20014;-78
2023/12/03 00:45:10;;;;;;;20.77;9.20;;;;;;;;;;6423660;22;20543;-78
2023/12/03 00:47:36;;;;;;;27.67;9.75;;;;;;;;;;6394033;22;20066;-77
2023/12/03 00:50:01;;;;;;;27.92;9.60;;;;;;;;;;6395349;22;20017;-78
2023/12/03 00:52:27;;;;;;;21.38;8.02;;;;;;;;;;6394394;22;20014;-77
2023/12/03 00:54:52;;;;;;;23.90;9.02;;;;;;;;;;6395336;22;20020;-78
2023/12/03 00:57:18;;;;;;;33.58;10.73;;;;;;;;;;6422643;22;20001;-77
2023/12/03 00:59:43;;;;;;;28.13;9.05;;;;;;;;;;6394735;22;20013;-78
2023/12/03 01:02:08;;;;;;;27.52;9.60;;;;;;;;;;6395458;22;20014;-78
2023/12/03 01:04:34;;;;;;;26.20;9.77;;;;;;;;;;6422607;22;20029;-78
2023/12/03 01:06:59;;;;;;;31.10;8.48;;;;;;;;;;6423882;22;20063;-77
2023/12/03 01:09:26;;;;;;;22.65;9.30;;;;;;;;;;6393828;22;20001;-77
2023/12/03 01:11:55;;;;;;;28.40;9.77;;;;;;;;;;6423302;22;20064;-77
2023/12/03 01:14:21;;;;;;;22.30;8.70;;;;;;;;;;6423779;22;20029;-77
2023/12/03 01:16:46;;;;;;;30.05;10.80;;;;;;;;;;6394237;22;20059;-77
2023/12/03 01:19:12;;;;;;;28.20;9.88;;;;;;;;;;6394797;22;20009;-77
2023/12/03 01:21:37;;;;;;;17.55;8.40;;;;;;;;;;6393393;22;20539;-78
2023/12/03 01:24:03;;;;;;;27.73;11.63;;;;;;;;;;6395670;22;20009;-77
2023/12/03 01:26:28;;;;;;;25.75;9.70;;;;;;;;;;6421611;22;20286;-78
2023/12/03 01:28:54;;;;;;;24.60;10.27;;;;;;;;;;6394421;22;20101;-77
2023/12/03 01:31:19;;;;;;;25.08;10.82;;;;;;;;;;6422223;22;20009;-77
2023/12/03 01:33:44;;;;;;;32.63;11.05;;;;;;;;;;6423343;22;20073;-76
2023/12/03 01:36:10;;;;;;;29.23;9.65;;;;;;;;;;6423244;22;20001;-77
2023/12/03 01:38:35;;;;;;;28.73;10.32;;;;;;;;;;6394755;22;20005;-77
2023/12/03 01:41:01;;;;;;;27.35;10.00;;;;;;;;;;6395373;22;20074;-77
2023/12/03 01:43:27;;;;;;;31.63;10.00;;;;;;;;;;6430406;22;20011;-77
2023/12/03 01:45:52;;;;;;;23.45;9.75;;;;;;;;;;6437792;22;20001;-78
2023/12/03 01:48:18;;;;;;;33.63;10.88;;;;;;;;;;6402830;22;20641;-77
2023/12/03 01:50:44;;;;;;;28.08;9.98;;;;;;;;;;6422284;22;20013;-77
2023/12/03 01:53:10;;;;;;;27.65;11.02;;;;;;;;;;6393850;22;20013;-77
2023/12/03 01:55:35;;;;;;;25.85;9.98;;;;;;;;;;6422401;22;20580;-77
2023/12/03 01:58:01;;;;;;;29.98;11.10;;;;;;;;;;6422637;22;20005;-77
2023/12/03 02:00:26;;;;;;;23.63;8.25;;;;;;;;;;6393271;22;20008;-77
2023/12/03 02:02:51;;;;;;;34.72;10.52;;;;;;;;;;6393983;22;20000;-77
2023/12/03 02:05:17;;;;;;;32.35;10.63;;;;;;;;;;6422191;22;20058;-77
2023/12/03 02:07:42;;;;;;;24.23;10.32;;;;;;;;;;6422408;22;20009;-77
2023/12/03 02:10:08;;;;;;;24.23;9.25;;;;;;;;;;6394143;22;20486;-77
2023/12/03 02:12:34;;;;;;;34.55;10.52;;;;;;;;;;6393486;22;20030;-77
2023/12/03 02:14:59;;;;;;;30.05;9.90;;;;;;;;;;6394676;22;20001;-77
2023/12/03 02:17:24;;;;;;;27.58;10.20;;;;;;;;;;6423280;22;20136;-77
2023/12/03 02:19:50;;;;;;;26.92;9.88;;;;;;;;;;6393551;22;20514;-77
2023/12/03 02:22:15;;;;;;;21.92;8.75;;;;;;;;;;6392633;22;20623;-78
2023/12/03 02:24:41;;;;;;;31.40;10.20;;;;;;;;;;6393108;22;20009;-77
2023/12/03 02:27:06;;;;;;;26.98;10.00;;;;;;;;;;6393469;22;20333;-77
2023/12/03 02:29:32;;;;;;;26.55;9.48;;;;;;;;;;6393627;22;20009;-77
2023/12/03 02:31:57;;;;;;;31.35;10.75;;;;;;;;;;6422405;22;20019;-77
2023/12/03 02:34:23;;;;;;;28.42;10.50;;;;;;;;;;6421200;22;20025;-77
2023/12/03 02:36:49;;;;;;;26.42;10.10;;;;;;;;;;6394062;22;20036;-77
2023/12/03 02:39:14;;;;;;;33.80;11.27;;;;;;;;;;6420299;22;19997;-77
2023/12/03 02:41:43;;;;;;;26.05;10.45;;;;;;;;;;6421291;22;20418;-77
2023/12/03 02:44:08;;;;;;;27.83;9.25;;;;;;;;;;6421538;22;20480;-77
2023/12/03 02:46:34;;;;;;;30.65;9.98;;;;;;;;;;6392125;22;20019;-77
2023/12/03 02:48:59;;;;;;;28.45;10.90;;;;;;;;;;6422510;22;20461;-77
2023/12/03 02:51:24;;;;;;;34.67;10.02;;;;;;;;;;6422768;22;19993;-77
2023/12/03 02:53:50;;;;;;;29.98;10.23;;;;;;;;;;6423015;22;20623;-77
2023/12/03 02:56:16;;;;;;;24.55;8.95;;;;;;;;;;6394670;22;20410;-77
2023/12/03 02:58:41;;;;;;;32.88;10.07;;;;;;;;;;6393825;22;20065;-77
2023/12/03 03:01:07;;;;;;;25.27;9.10;;;;;;;;;;6395496;22;20612;-77
2023/12/03 03:03:33;;;;;;;34.35;11.73;;;;;;;;;;6402611;22;20016;-77
2023/12/03 03:05:58;;;;;;;29.92;9.15;;;;;;;;;;6442111;22;20081;-77
2023/12/03 03:08:24;;;;;;;26.42;9.90;;;;;;;;;;6436049;22;20447;-77
2023/12/03 03:10:49;;;;;;;30.45;9.93;;;;;;;;;;6396712;22;20055;-77
2023/12/03 03:13:14;;;;;;;20.45;8.48;;;;;;;;;;6423925;22;20009;-77
2023/12/03 03:15:40;;;;;;;26.05;10.68;;;;;;;;;;6394657;22;20020;-77
2023/12/03 03:18:05;;;;;;;32.30;10.88;;;;;;;;;;6422954;22;20035;-77
2023/12/03 03:20:31;;;;;;;22.83;8.48;;;;;;;;;;6394312;22;20476;-77
2023/12/03 03:22:56;;;;;;;27.17;10.00;;;;;;;;;;6393283;22;20001;-77
2023/12/03 03:25:21;;;;;;;23.08;9.38;;;;;;;;;;6393996;22;20468;-77
2023/12/03 03:27:47;;;;;;;28.80;9.38;;;;;;;;;;6393414;22;20024;-77
2023/12/03 03:30:12;;;;;;;25.15;10.38;;;;;;;;;;6424026;22;20898;-77
2023/12/03 03:32:38;;;;;;;27.88;9.70;;;;;;;;;;6422074;22;20028;-77
2023/12/03 03:35:03;;;;;;;23.92;8.25;;;;;;;;;;6420329;22;20009;-77
2023/12/03 03:37:29;;;;;;;26.15;8.88;;;;;;;;;;6393220;22;20057;-77
2023/12/03 03:39:54;;;;;;;27.80;11.52;;;;;;;;;;6422195;22;20353;-77
2023/12/03 03:42:20;;;;;;;29.58;9.68;;;;;;;;;;6394639;22;19993;-77
2023/12/03 03:44:46;;;;;;;37.22;11.55;;;;;;;;;;6421164;22;20088;-77
2023/12/03 03:47:12;;;;;;;22.55;9.75;;;;;;;;;;6421966;22;20018;-77
2023/12/03 03:49:37;;;;;;;15.90;6.78;;;;;;;;;;6390796;22;20073;-77
2023/12/03 03:52:03;;;;;;;28.52;10.18;;;;;;;;;;6390555;22;20551;-77
2023/12/03 03:54:29;;;;;;;22.80;10.13;;;;;;;;;;6422082;22;20510;-77
2023/12/03 03:56:54;;;;;;;20.25;8.23;;;;;;;;;;6420957;22;19993;-77
2023/12/03 03:59:19;;;;;;;27.77;10.10;;;;;;;;;;6393697;22;20010;-77
2023/12/03 04:01:45;;;;;;;36.92;10.77;;;;;;;;;;6393240;22;20032;-77
2023/12/03 04:04:11;;;;;;;19.70;6.35;;;;;;;;;;6421108;22;20488;-76
2023/12/03 04:06:41;;;;;;;25.58;8.73;;;;;;;;;;6391499;22;20420;-76
2023/12/03 04:09:07;;;;;;;9.43;5.05;;;;;;;;;;6421238;22;20046;-77
2023/12/03 04:11:37;;;;;;;21.67;8.52;;;;;;;;;;6393210;22;20005;-78
2023/12/03 04:14:03;;;;;;;19.60;9.13;;;;;;;;;;6393311;22;20013;-76
2023/12/03 04:16:28;;;;;;;34.45;7.55;;;;;;;;;;6393702;22;20013;-76
2023/12/03 04:18:53;;;;;;;18.25;8.15;;;;;;;;;;6421442;22;20006;-76
2023/12/03 04:21:19;;;;;;;16.55;6.88;;;;;;;;;;6425063;22;20058;-77
2023/12/03 04:23:44;;;;;;;14.73;4.93;;;;;;;;;;6404581;22;20008;-77
2023/12/03 04:26:10;;;;;;;17.38;5.40;;;;;;;;;;6407343;22;20069;-76
2023/12/03 04:28:39;;;;;;;10.85;5.03;;;;;;;;;;6424956;22;20012;-76
2023/12/03 04:31:05;;;;;;;21.23;7.72;;;;;;;;;;6419624;22;20001;-76
2023/12/03 04:33:30;;;;;;;22.95;8.10;;;;;;;;;;6392689;22;20344;-77
2023/12/03 04:35:55;;;;;;;19.13;7.30;;;;;;;;;;6393222;22;20035;-77
2023/12/03 04:38:21;;;;;;;22.17;4.93;;;;;;;;;;6421446;22;20380;-76
2023/12/03 04:40:47;;;;;;;21.08;7.95;;;;;;;;;;6391857;22;20020;-77
2023/12/03 04:43:12;;;;;;;21.60;7.75;;;;;;;;;;6391821;22;20034;-76
2023/12/03 04:45:38;;;;;;;8.85;5.35;;;;;;;;;;6393338;22;20005;-76
2023/12/03 04:48:05;;;;;;;28.55;9.65;;;;;;;;;;6395300;22;20089;-76
2023/12/03 04:50:30;;;;;;;21.33;5.78;;;;;;;;;;6394370;22;20364;-75
2023/12/03 04:52:56;;;;;;;11.35;5.55;;;;;;;;;;6394887;22;20013;-77
2023/12/03 04:55:21;;;;;;;17.92;7.15;;;;;;;;;;6422904;22;20046;-77
2023/12/03 04:57:46;;;;;;;23.70;8.15;;;;;;;;;;6393815;22;20010;-76
2023/12/03 05:00:12;;;;;;;11.18;5.28;;;;;;;;;;6424039;22;20005;-77
2023/12/03 05:02:38;;;;;;;16.50;7.90;;;;;;;;;;6394750;22;20016;-77
2023/12/03 05:05:04;;;;;;;15.40;5.30;;;;;;;;;;6394002;22;20044;-77
2023/12/03 05:07:29;;;;;;;20.60;7.55;;;;;;;;;;6395173;22;20013;-76
2023/12/03 05:09:54;;;;;;;24.80;6.68;;;;;;;;;;6394810;22;19997;-77
2023/12/03 05:12:20;;;;;;;16.65;8.15;;;;;;;;;;6424014;22;20436;-77
2023/12/03 05:14:45;;;;;;;11.32;5.10;;;;;;;;;;6423135;22;20018;-77
2023/12/03 05:17:10;;;;;;;16.15;6.53;;;;;;;;;;6422396;22;20405;-77
2023/12/03 05:19:36;;;;;;;20.50;9.10;;;;;;;;;;6395021;22;20005;-77
2023/12/03 05:22:01;;;;;;;23.10;8.65;;;;;;;;;;6394337;22;20012;-76
2023/12/03 05:24:27;;;;;;;21.55;6.85;;;;;;;;;;6395200;22;20427;-77
2023/12/03 05:26:52;;;;;;;13.95;4.90;;;;;;;;;;6395673;22;19998;-77
2023/12/03 05:29:18;;;;;;;8.52;4.95;;;;;;;;;;6423231;22;20017;-77
2023/12/03 05:31:44;;;;;;;14.80;6.30;;;;;;;;;;6393385;22;20561;-77
2023/12/03 05:34:10;;;;;;;12.02;6.15;;;;;;;;;;6394286;22;20013;-77
2023/12/03 05:36:35;;;;;;;13.38;5.50;;;;;;;;;;6394088;22;20008;-77
2023/12/03 05:39:00;;;;;;;17.23;8.13;;;;;;;;;;6396317;22;20000;-77
2023/12/03 05:41:26;;;;;;;17.17;7.85;;;;;;;;;;6397323;22;20034;-77
2023/12/03 05:43:52;;;;;;;15.38;6.68;;;;;;;;;;6408756;22;20017;-77
2023/12/03 05:46:17;;;;;;;17.17;6.78;;;;;;;;;;6415796;22;20001;-77
2023/12/03 05:48:42;;;;;;;6.53;3.40;;;;;;;;;;6400587;22;20005;-77
2023/12/03 05:51:10;;;;;;;17.95;6.38;;;;;;;;;;6425476;22;20378;-77
2023/12/03 05:53:35;;;;;;;12.18;5.60;;;;;;;;;;6394975;22;20017;-76
2023/12/03 05:56:00;;;;;;;6.35;3.88;;;;;;;;;;6423312;22;20009;-76
2023/12/03 05:58:26;;;;;;;18.35;7.45;;;;;;;;;;6422462;22;20009;-77
2023/12/03 06:00:51;;;;;;;10.00;5.43;;;;;;;;;;6422245;22;20020;-77
2023/12/03 06:03:17;;;;;;;18.73;7.22;;;;;;;;;;6394350;22;20014;-77
2023/12/03 06:05:42;;;;;;;25.33;8.05;;;;;;;;;;6394673;22;20017;-76
2023/12/03 06:08:07;;;;;;;16.02;6.45;;;;;;;;;;6422913;22;20017;-76
2023/12/03 06:10:33;;;;;;;15.40;6.93;;;;;;;;;;6393808;22;20002;-76
2023/12/03 06:12:58;;;;;;;14.30;4.55;;;;;;;;;;6421884;22;20005;-77
2023/12/03 06:15:23;;;;;;;16.08;7.75;;;;;;;;;;6393259;22;20032;-77
2023/12/03 06:17:49;;;;;;;12.23;5.25;;;;;;;;;;6394471;22;20054;-77
2023/12/03 06:20:14;;;;;;;10.55;4.07;;;;;;;;;;6422014;22;20037;-77
2023/12/03 06:22:39;;;;;;;12.57;6.13;;;;;;;;;;6393573;22;20088;-76
2023/12/03 06:25:05;;;;;;;14.68;5.70;;;;;;;;;;6422156;22;20010;-77
2023/12/03 06:27:31;;;;;;;14.75;6.25;;;;;;;;;;6422588;22;19997;-77
2023/12/03 06:29:57;;;;;;;13.50;7.20;;;;;;;;;;6394153;22;19996;-76
2023/12/03 06:32:23;;;;;;;7.78;4.22;;;;;;;;;;6393887;22;20009;-77
2023/12/03 06:34:48;;;;;;;11.27;3.75;;;;;;;;;;6392655;22;20032;-77
2023/12/03 06:37:13;;;;;;;14.85;5.78;;;;;;;;;;6421828;22;20010;-77
2023/12/03 06:39:39;;;;;;;12.50;5.53;;;;;;;;;;6422670;22;20493;-77
2023/12/03 06:42:04;;;;;;;3.85;2.42;;;;;;;;;;6423168;22;20088;-77
2023/12/03 06:44:29;;;;;;;20.48;8.73;;;;;;;;;;6393717;22;20021;-77
2023/12/03 06:46:55;;;;;;;8.75;4.10;;;;;;;;;;6393865;22;20021;-77
2023/12/03 06:49:20;;;;;;;14.63;5.72;;;;;;;;;;6422467;22;20006;-77
2023/12/03 06:51:46;;;;;;;11.80;5.20;;;;;;;;;;6393598;22;20012;-77
2023/12/03 06:54:12;;;;;;;9.48;4.32;;;;;;;;;;6394833;22;20081;-77
2023/12/03 06:56:37;;;;;;;8.38;3.40;;;;;;;;;;6393848;22;20027;-77
2023/12/03 06:59:03;;;;;;;14.73;6.32;;;;;;;;;;6394352;22;20017;-77
2023/12/03 07:01:28;;;;;;;13.55;6.05;;;;;;;;;;6398752;22;20024;-77
2023/12/03 07:03:53;;;;;;;11.13;4.63;;;;;;;;;;6408670;22;20029;-77
2023/12/03 07:06:19;;;;;;;18.08;7.50;;;;;;;;;;6433206;22;20028;-77
2023/12/03 07:08:44;;;;;;;14.35;4.88;;;;;;;;;;6421454;22;20082;-77
2023/12/03 07:11:12;;;;;;;7.13;3.97;;;;;;;;;;6393832;22;20013;-77
2023/12/03 07:13:38;;;;;;;9.55;5.20;;;;;;;;;;6392900;22;20560;-77
2023/12/03 07:16:03;;;;;;;9.65;4.93;;;;;;;;;;6394152;22;20084;-77
2023/12/03 07:18:29;;;;;;;13.10;6.43;;;;;;;;;;6393851;22;20102;-77
2023/12/03 07:20:54;;;;;;;12.95;4.93;;;;;;;;;;6422527;22;20497;-77
2023/12/03 07:23:19;;;;;;;9.00;4.70;;;;;;;;;;6392523;22;20013;-77
2023/12/03 07:25:45;;;;;;;14.52;6.43;;;;;;;;;;6422462;22;20508;-77
2023/12/03 07:28:10;;;;;;;8.45;3.58;;;;;;;;;;6422163;22;20740;-77
2023/12/03 07:30:36;;;;;;;5.90;4.57;;;;;;;;;;6393858;22;20001;-77
2023/12/03 07:33:01;;;;;;;14.82;5.28;;;;;;;;;;6393826;22;19993;-77
2023/12/03 07:35:26;;;;;;;10.65;5.28;;;;;;;;;;6422005;22;20090;-77
2023/12/03 07:37:52;;;;;;;10.70;4.88;;;;;;;;;;6391713;22;20009;-77
2023/12/03 07:40:17;;;;;;;16.55;5.50;;;;;;;;;;6393425;22;20372;-77
2023/12/03 07:42:42;;;;;;;9.27;4.63;;;;;;;;;;6392766;22;20432;-77
2023/12/03 07:45:08;;;;;;;14.43;4.03;;;;;;;;;;6422788;22;19993;-77
2023/12/03 07:47:33;;;;;;;22.45;7.55;;;;;;;;;;6393267;22;20018;-77
2023/12/03 07:49:59;;;;;;;12.65;6.00;;;;;;;;;;6423015;22;20460;-77
2023/12/03 07:52:26;;;;;;;6.97;3.13;;;;;;;;;;6421686;22;20017;-77
2023/12/03 07:54:51;;;;;;;15.52;7.10;;;;;;;;;;6394094;22;20013;-77
2023/12/03 07:57:17;;;;;;;14.75;5.63;;;;;;;;;;6392683;22;20886;-77
2023/12/03 07:59:43;;;;;;;16.77;6.38;;;;;;;;;;6421971;22;20091;-76
2023/12/03 08:02:08;;;;;;;5.40;3.30;;;;;;;;;;6392873;22;20009;-77
2023/12/03 08:04:34;;;;;;;36.50;5.30;;;;;;;;;;6393045;22;20022;-76
2023/12/03 08:06:59;;;;;;;12.38;5.18;;;;;;;;;;6421581;22;20025;-77
2023/12/03 08:09:25;;;;;;;9.35;4.32;;;;;;;;;;6422921;22;20428;-77
2023/12/03 08:11:50;;;;;;;7.32;4.10;;;;;;;;;;6393826;22;19989;-78
2023/12/03 08:14:16;;;;;;;14.25;6.28;;;;;;;;;;6422667;22;20016;-78
2023/12/03 08:16:41;;;;;;;20.27;6.55;;;;;;;;;;6392427;22;20448;-78
2023/12/03 08:19:06;;;;;;;14.70;5.90;;;;;;;;;;6394366;22;20026;-78
2023/12/03 08:21:33;;;;;;;15.30;5.88;;;;;;;;;;6404333;22;20005;-78
2023/12/03 08:23:59;;;;;;;12.48;5.65;;;;;;;;;;6442665;22;20002;-78
2023/12/03 08:26:24;;;;;;;10.85;4.90;;;;;;;;;;6416602;22;20100;-79
2023/12/03 08:28:50;;;;;;;13.02;4.22;;;;;;;;;;6432728;22;20349;-78
2023/12/03 08:31:15;;;;;;;7.18;3.63;;;;;;;;;;6425253;22;20013;-78
2023/12/03 08:33:40;;;;;;;11.15;4.95;;;;;;;;;;6396463;22;20019;-78
2023/12/03 08:36:06;;;;;;;13.55;4.40;;;;;;;;;;6395209;22;20015;-78
2023/12/03 08:38:32;;;;;;;9.85;3.95;;;;;;;;;;6422443;22;20021;-78
2023/12/03 08:40:57;;;;;;;13.90;6.78;;;;;;;;;;6394338;22;20454;-78
2023/12/03 08:43:22;;;;;;;17.85;6.40;;;;;;;;;;6395477;22;20006;-77
2023/12/03 08:45:48;;;;;;;16.27;6.55;;;;;;;;;;6451519;22;20002;-78
2023/12/03 08:48:14;;;;;;;12.20;4.68;;;;;;;;;;6454320;22;19989;-77
2023/12/03 08:50:42;;;;;;;18.48;6.90;;;;;;;;;;6415879;22;20013;-79
2023/12/03 08:53:08;;;;;;;13.55;4.88;;;;;;;;;;6424416;22;20627;-78
2023/12/03 08:55:33;;;;;;;11.95;6.03;;;;;;;;;;6395289;22;20009;-78
2023/12/03 08:58:00;;;;;;;10.35;4.15;;;;;;;;;;6426569;22;20013;-78
2023/12/03 09:00:27;;;;;;;19.40;7.25;;;;;;;;;;6394510;22;20009;-78
2023/12/03 09:02:52;;;;;;;9.70;5.03;;;;;;;;;;6395685;22;19990;-78
2023/12/03 09:05:17;;;;;;;10.27;4.25;;;;;;;;;;6420540;22;20024;-78
2023/12/03 09:07:43;;;;;;;11.20;4.88;;;;;;;;;;6424119;22;20461;-78
2023/12/03 09:10:08;;;;;;;11.90;6.47;;;;;;;;;;6422792;22;20065;-77
2023/12/03 09:12:34;;;;;;;10.85;5.25;;;;;;;;;;6424155;22;20005;-78
2023/12/03 09:14:59;;;;;;;8.23;3.80;;;;;;;;;;6393872;22;20001;-78
2023/12/03 09:17:26;;;;;;;15.30;6.95;;;;;;;;;;6424121;22;20013;-78
2023/12/03 09:19:51;;;;;;;13.02;4.28;;;;;;;;;;6422801;22;20013;-78
2023/12/03 09:22:17;;;;;;;12.85;7.15;;;;;;;;;;6393920;22;20005;-78
2023/12/03 09:24:42;;;;;;;13.65;6.28;;;;;;;;;;6394007;22;20005;-79
2023/12/03 09:27:07;;;;;;;12.27;6.15;;;;;;;;;;6423695;22;20073;-78
2023/12/03 09:29:33;;;;;;;14.70;5.95;;;;;;;;;;6392466;22;20092;-78
2023/12/03 09:31:58;;;;;;;13.00;6.85;;;;;;;;;;6394676;22;20029;-78
2023/12/03 09:34:24;;;;;;;12.63;5.43;;;;;;;;;;6394461;22;20022;-79
2023/12/03 09:36:49;;;;;;;11.38;6.05;;;;;;;;;;6395688;22;20009;-78
2023/12/03 09:39:15;;;;;;;8.55;5.00;;;;;;;;;;6396819;22;20531;-78
2023/12/03 09:42:01;;;;;;;11.90;5.53;;;;;;;;;;6435708;22;20013;-78
2023/12/03 09:44:33;;;;;;;16.77;7.05;;;;;;;;;;6435879;22;20016;-79
2023/12/03 09:46:59;;;;;;;18.38;6.40;;;;;;;;;;6392422;22;20087;-79
2023/12/03 09:49:28;;;;;;;18.80;5.35;;;;;;;;;;6423414;22;20017;-79
2023/12/03 09:51:59;;;;;;;15.80;6.57;;;;;;;;;;6393324;22;20051;-79
2023/12/03 09:54:24;;;;;;;11.32;5.97;;;;;;;;;;6422954;22;19997;-75
2023/12/03 09:56:54;;;;;;;7.93;3.42;;;;;;;;;;6422988;22;20119;-78
2023/12/03 09:59:20;;;;;;;5.85;3.30;;;;;;;;;;6392472;22;20009;-79
2023/12/03 10:01:46;;;;;;;15.00;6.47;;;;;;;;;;6421022;22;20029;-79
2023/12/03 10:04:11;;;;;;;18.35;8.60;;;;;;;;;;6392628;22;20744;-79
2023/12/03 10:06:43;;;;;;;9.05;4.40;;;;;;;;;;6392986;22;20012;-79
2023/12/03 10:09:12;;;;;;;11.80;3.88;;;;;;;;;;6393639;22;20116;-79
2023/12/03 10:11:44;;;;;;;10.73;4.35;;;;;;;;;;6393783;22;20024;-79
2023/12/03 10:14:12;;;;;;;7.47;3.85;;;;;;;;;;6422477;22;20013;-79
2023/12/03 10:16:38;;;;;;;8.02;3.60;;;;;;;;;;6421283;22;20009;-80
2023/12/03 10:19:04;;;;;;;11.43;4.18;;;;;;;;;;6423063;22;20005;-79
2023/12/03 10:21:30;;;;;;;19.02;6.78;;;;;;;;;;6419815;22;20329;-79
2023/12/03 10:24:00;;;;;;;7.47;3.90;;;;;;;;;;6422127;22;19997;-80
2023/12/03 10:26:26;;;;;;;20.95;7.15;;;;;;;;;;6393749;22;20158;-79
2023/12/03 10:28:52;;;;;;;13.15;6.63;;;;;;;;;;6422905;22;20493;-80
2023/12/03 10:31:18;;;;;;;9.00;5.22;;;;;;;;;;6422179;22;20035;-80
2023/12/03 10:33:47;;;;;;;17.58;6.68;;;;;;;;;;6393066;22;20065;-80
2023/12/03 10:36:12;;;;;;;19.38;7.00;;;;;;;;;;6393720;22;20085;-79
2023/12/03 10:38:39;;;;;;;8.32;4.80;;;;;;;;;;6421796;22;20017;-79
2023/12/03 10:41:07;;;;;;;9.25;4.15;;;;;;;;;;6393755;22;20521;-80
2023/12/03 10:43:38;;;;;;;12.15;4.78;;;;;;;;;;6422348;22;20069;-79
2023/12/03 10:46:09;;;;;;;15.40;6.28;;;;;;;;;;6421950;22;20001;-80
2023/12/03 10:48:34;;;;;;;5.93;3.55;;;;;;;;;;6393608;22;20005;-80
2023/12/03 10:51:08;;;;;;;18.40;6.03;;;;;;;;;;6394918;22;20036;-79
2023/12/03 10:53:35;;;;;;;14.15;5.22;;;;;;;;;;6394625;22;20104;-80
2023/12/03 10:56:03;;;;;;;10.63;5.20;;;;;;;;;;6423676;22;20014;-79
2023/12/03 10:58:29;;;;;;;12.88;4.70;;;;;;;;;;6425028;22;20498;-80
2023/12/03 11:01:01;;;;;;;11.77;4.75;;;;;;;;;;6434509;22;20024;-79
2023/12/03 11:04:00;;;;;;;15.27;6.50;;;;;;;;;;6414550;22;20013;-79
2023/12/03 11:06:26;;;;;;;16.30;5.15;;;;;;;;;;6399677;22;20343;-80
2023/12/03 11:08:54;;;;;;;16.90;5.90;;;;;;;;;;6394351;22;20487;-79
2023/12/03 11:11:21;;;;;;;8.18;4.40;;;;;;;;;;6422714;22;20025;-79
2023/12/03 11:13:52;;;;;;;11.40;4.95;;;;;;;;;;6394002;22;20013;-79
2023/12/03 11:16:19;;;;;;;15.93;6.65;;;;;;;;;;6422871;22;20558;-80
2023/12/03 11:18:53;;;;;;;12.65;5.60;;;;;;;;;;6421643;22;20005;-80
2023/12/03 11:21:36;;;;;;;11.82;5.25;;;;;;;;;;6422258;22;20032;-80
2023/12/03 11:24:42;;;;;;;10.00;5.82;;;;;;;;;;6394446;22;20092;-80
2023/12/03 11:27:08;;;;;;;14.82;6.25;;;;;;;;;;6422855;22;20031;-80
2023/12/03 11:29:49;;;;;;;12.10;5.38;;;;;;;;;;6393952;22;20018;-79
2023/12/03 11:32:19;;;;;;;13.77;6.13;;;;;;;;;;6422606;22;20017;-79
2023/12/03 11:35:06;;;;;;;17.45;7.50;;;;;;;;;;6419782;22;20021;-79
2023/12/03 11:37:31;;;;;;;14.43;5.75;;;;;;;;;;6393341;22;20033;-79
2023/12/03 11:40:08;;;;;;;15.95;6.05;;;;;;;;;;6392772;22;20406;-79
2023/12/03 11:42:45;;;;;;;13.52;5.35;;;;;;;;;;6392872;22;20076;-79
2023/12/03 11:45:20;;;;;;;14.05;5.47;;;;;;;;;;6422630;22;20032;-80
2023/12/03 11:48:08;;;;;;;11.80;4.05;;;;;;;;;;6392663;22;20024;-79
2023/12/03 11:50:42;;;;;;;10.07;5.72;;;;;;;;;;6421152;22;20017;-79
2023/12/03 11:53:09;;;;;;;7.55;3.63;;;;;;;;;;6422407;22;20684;-79
2023/12/03 11:55:42;;;;;;;8.95;4.32;;;;;;;;;;6391968;22;20013;-79
2023/12/03 11:58:08;;;;;;;13.35;4.22;;;;;;;;;;6420689;22;20008;-79
2023/12/03 12:00:34;;;;;;;16.15;7.80;;;;;;;;;;6391861;22;20508;-80
2023/12/03 12:03:02;;;;;;;14.07;6.18;;;;;;;;;;6422661;22;20046;-79
2023/12/03 12:05:28;;;;;;;13.02;5.25;;;;;;;;;;6392605;22;20048;-79
2023/12/03 12:08:03;;;;;;;15.57;7.30;;;;;;;;;;6421793;22;20009;-79
2023/12/03 12:10:32;;;;;;;12.95;6.15;;;;;;;;;;6421024;22;20002;-80
2023/12/03 12:12:59;;;;;;;10.98;5.35;;;;;;;;;;6422040;22;20061;-80
2023/12/03 12:15:25;;;;;;;11.65;4.95;;;;;;;;;;6393974;22;20504;-80
2023/12/03 12:17:52;;;;;;;16.63;7.63;;;;;;;;;;6424118;22;20130;-80
2023/12/03 12:20:28;;;;;;;13.55;6.45;;;;;;;;;;6432662;22;20106;-80
2023/12/03 12:22:54;;;;;;;8.35;4.60;;;;;;;;;;6437209;22;20069;-80
2023/12/03 12:25:21;;;;;;;19.05;7.97;;;;;;;;;;6423130;22;20024;-80
2023/12/03 12:27:48;;;;;;;9.60;4.28;;;;;;;;;;6421315;22;20010;-80
2023/12/03 12:30:16;;;;;;;6.25;3.50;;;;;;;;;;6421896;22;20477;-80
2023/12/03 12:32:41;;;;;;;11.02;4.82;;;;;;;;;;6420654;22;20088;-80
2023/12/03 12:35:08;;;;;;;3.92;3.17;;;;;;;;;;6392132;22;20088;-81
2023/12/03 12:37:37;;;;;;;14.98;5.13;;;;;;;;;;6419574;22;20419;-81
2023/12/03 12:40:11;;;;;;;20.45;7.43;;;;;;;;;;6418001;22;20021;-80
2023/12/03 12:42:42;;;;;;;14.20;6.90;;;;;;;;;;6417355;22;20001;-81
2023/12/03 12:45:31;;;;;;;18.23;7.03;;;;;;;;;;6393696;22;20062;-80
2023/12/03 12:47:57;;;;;;;11.30;4.60;;;;;;;;;;6421319;22;20073;-80
2023/12/03 12:50:32;;;;;;;16.20;6.35;;;;;;;;;;6421835;22;20001;-80
2023/12/03 12:52:58;;;;;;;7.53;4.18;;;;;;;;;;6391565;22;20013;-80
2023/12/03 12:55:30;;;;;;;9.23;2.90;;;;;;;;;;6420915;22;20057;-80
2023/12/03 12:57:56;;;;;;;13.43;5.55;;;;;;;;;;6391631;22;20508;-80
2023/12/03 13:00:22;;;;;;;6.38;3.22;;;;;;;;;;6391507;22;20066;-80
2023/12/03 13:02:47;;;;;;;11.38;5.28;;;;;;;;;;6420822;22;20009;-80
2023/12/03 13:05:13;;;;;;;11.68;5.45;;;;;;;;;;6390910;22;20035;-79
2023/12/03 13:07:39;;;;;;;13.82;5.10;;;;;;;;;;6393952;22;20009;-79
2023/12/03 13:10:05;;;;;;;12.13;5.18;;;;;;;;;;6421426;22;20005;-79
2023/12/03 13:12:31;;;;;;;7.03;3.95;;;;;;;;;;6422474;22;20436;-79
2023/12/03 13:14:56;;;;;;;10.65;3.78;;;;;;;;;;6392581;22;19998;-80
2023/12/03 13:17:23;;;;;;;7.32;3.28;;;;;;;;;;6395050;22;20010;-80
2023/12/03 13:19:49;;;;;;;12.45;4.38;;;;;;;;;;6393097;22;20029;-80
2023/12/03 13:22:14;;;;;;;7.45;3.55;;;;;;;;;;6422797;22;20017;-79
2023/12/03 13:24:40;;;;;;;11.00;4.43;;;;;;;;;;6421910;22;20024;-80
2023/12/03 13:27:06;;;;;;;10.75;5.35;;;;;;;;;;6394564;22;20002;-80
2023/12/03 13:29:32;;;;;;;11.18;4.72;;;;;;;;;;6421747;22;20021;-80
2023/12/03 13:31:57;;;;;;;8.18;4.20;;;;;;;;;;6423137;22;20009;-80
2023/12/03 13:34:23;;;;;;;9.35;4.72;;;;;;;;;;6423731;22;20001;-80
2023/12/03 13:36:49;;;;;;;5.13;3.28;;;;;;;;;;6396222;22;20161;-80
2023/12/03 13:39:15;;;;;;;10.20;4.28;;;;;;;;;;6432096;22;19997;-80
2023/12/03 13:41:42;;;;;;;7.72;4.05;;;;;;;;;;6412619;22;20028;-80
2023/12/03 13:44:08;;;;;;;17.45;6.43;;;;;;;;;;6435821;22;20494;-80
2023/12/03 13:46:34;;;;;;;6.63;3.67;;;;;;;;;;6426187;22;20009;-80
2023/12/03 13:48:59;;;;;;;7.30;3.30;;;;;;;;;;6389799;22;20040;-80
2023/12/03 13:51:26;;;;;;;11.85;5.82;;;;;;;;;;6390447;22;20570;-80
2023/12/03 13:53:51;;;;;;;5.13;2.75;;;;;;;;;;6391871;22;20630;-80
2023/12/03 13:56:17;;;;;;;5.90;3.15;;;;;;;;;;6382360;22;20009;-80
2023/12/03 13:58:42;;;;;;;5.30;3.15;;;;;;;;;;6415265;22;20016;-80
2023/12/03 14:01:08;;;;;;;7.15;2.75;;;;;;;;;;6420495;22;20017;-80
2023/12/03 14:03:33;;;;;;;8.80;4.18;;;;;;;;;;6391075;22;20021;-80
2023/12/03 14:05:59;;;;;;;8.77;3.83;;;;;;;;;;6420818;22;20398;-80
2023/12/03 14:08:24;;;;;;;11.38;3.72;;;;;;;;;;6393401;22;20460;-79
2023/12/03 14:10:49;;;;;;;10.13;2.92;;;;;;;;;;6420554;22;20013;-79
2023/12/03 14:13:15;;;;;;;12.77;5.10;;;;;;;;;;6421894;22;20010;-80
2023/12/03 14:15:42;;;;;;;11.18;5.20;;;;;;;;;;6420645;22;20008;-80
2023/12/03 14:18:07;;;;;;;13.00;5.28;;;;;;;;;;6422065;22;20057;-80
2023/12/03 14:20:33;;;;;;;6.53;2.53;;;;;;;;;;6392243;22;20026;-79
2023/12/03 14:22:58;;;;;;;4.65;2.97;;;;;;;;;;6393145;22;20084;-80
2023/12/03 14:25:25;;;;;;;14.88;5.18;;;;;;;;;;6417851;22;20005;-80
2023/12/03 14:27:55;;;;;;;11.10;3.88;;;;;;;;;;6391684;22;20496;-80